sensor_id;sensor_type;location;lat;lon;timestamp;pressure;altitude;pressure_sealevel;temperature;humidity
50302;BME280;36550;50.472;19.744;2023-04-29T00:02:01;97889.36;;;6.15;63.23
50302;BME280;36550;50.472;19.744;2023-04-29T00:04:45;97887.65;;;6.12;63.24
50302;BME280;36550;50.472;19.744;2023-04-29T00:07:31;97889.09;;;6.07;63.17
50302;BME280;36550;50.472;19.744;2023-04-29T00:10:16;97891.61;;;5.99;63.14
50302;BME280;36550;50.472;19.744;2023-04-29T00:13:00;97892.96;;;5.91;63.13
50302;BME280;36550;50.472;19.744;2023-04-29T00:15:44;97891.75;;;5.86;63.19
50302;BME280;36550;50.472;19.744;2023-04-29T00:18:28;97895.85;;;5.82;63.18
50302;BME280;36550;50.472;19.744;2023-04-29T00:21:12;97893.74;;;5.78;63.42
50302;BME280;36550;50.472;19.744;2023-04-29T00:23:55;97888.30;;;5.74;63.51
50302;BME280;36550;50.472;19.744;2023-04-29T00:26:39;97888.74;;;5.74;63.69
50302;BME280;36550;50.472;19.744;2023-04-29T00:29:23;97887.58;;;5.76;63.79
50302;BME280;36550;50.472;19.744;2023-04-29T00:32:07;97880.27;;;5.78;63.92
50302;BME280;36550;50.472;19.744;2023-04-29T00:34:51;97878.23;;;5.81;64.20
50302;BME280;36550;50.472;19.744;2023-04-29T00:37:35;97879.02;;;5.82;64.21
50302;BME280;36550;50.472;19.744;2023-04-29T00:40:20;97878.23;;;5.80;64.38
50302;BME280;36550;50.472;19.744;2023-04-29T00:43:04;97875.87;;;5.79;64.51
50302;BME280;36550;50.472;19.744;2023-04-29T00:45:48;97872.39;;;5.78;64.53
50302;BME280;36550;50.472;19.744;2023-04-29T00:48:33;97868.48;;;5.76;64.58
50302;BME280;36550;50.472;19.744;2023-04-29T00:51:17;97867.63;;;5.75;64.49
50302;BME280;36550;50.472;19.744;2023-04-29T00:54:03;97866.53;;;5.70;64.47
50302;BME280;36550;50.472;19.744;2023-04-29T00:56:48;97866.05;;;5.62;64.28
50302;BME280;36550;50.472;19.744;2023-04-29T00:59:33;97863.74;;;5.52;64.13
50302;BME280;36550;50.472;19.744;2023-04-29T01:02:17;97862.66;;;5.42;64.17
50302;BME280;36550;50.472;19.744;2023-04-29T01:05:01;97863.95;;;5.34;64.34
50302;BME280;36550;50.472;19.744;2023-04-29T01:11:08;97866.47;;;5.24;64.59
50302;BME280;36550;50.472;19.744;2023-04-29T01:13:57;97864.38;;;5.20;64.62
50302;BME280;36550;50.472;19.744;2023-04-29T01:16:44;97865.59;;;5.17;64.78
50302;BME280;36550;50.472;19.744;2023-04-29T01:22:31;97867.65;;;5.08;65.28
50302;BME280;36550;50.472;19.744;2023-04-29T01:25:15;97871.90;;;5.06;65.51
50302;BME280;36550;50.472;19.744;2023-04-29T01:28:25;97873.58;;;5.05;65.72
50302;BME280;36550;50.472;19.744;2023-04-29T01:31:43;97868.93;;;5.05;65.89
50302;BME280;36550;50.472;19.744;2023-04-29T01:34:46;97867.05;;;5.06;66.13
50302;BME280;36550;50.472;19.744;2023-04-29T01:38:14;97865.89;;;5.07;66.12
50302;BME280;36550;50.472;19.744;2023-04-29T01:41:22;97863.13;;;5.02;65.85
50302;BME280;36550;50.472;19.744;2023-04-29T01:44:15;97866.35;;;4.96;65.89
50302;BME280;36550;50.472;19.744;2023-04-29T01:47:00;97863.73;;;4.97;66.06
50302;BME280;36550;50.472;19.744;2023-04-29T01:49:43;97863.70;;;5.01;66.25
50302;BME280;36550;50.472;19.744;2023-04-29T01:52:29;97864.73;;;5.06;66.39
50302;BME280;36550;50.472;19.744;2023-04-29T01:55:13;97862.84;;;5.13;66.58
50302;BME280;36550;50.472;19.744;2023-04-29T01:57:57;97854.70;;;5.19;66.76
50302;BME280;36550;50.472;19.744;2023-04-29T02:00:41;97853.61;;;5.28;66.96
50302;BME280;36550;50.472;19.744;2023-04-29T02:03:25;97853.36;;;5.33;67.19
50302;BME280;36550;50.472;19.744;2023-04-29T02:06:09;97852.66;;;5.38;67.24
50302;BME280;36550;50.472;19.744;2023-04-29T02:08:52;97851.20;;;5.44;67.46
50302;BME280;36550;50.472;19.744;2023-04-29T02:11:36;97849.45;;;5.51;67.62
50302;BME280;36550;50.472;19.744;2023-04-29T02:14:20;97848.60;;;5.57;67.74
50302;BME280;36550;50.472;19.744;2023-04-29T02:17:04;97851.33;;;5.64;67.80
50302;BME280;36550;50.472;19.744;2023-04-29T02:19:49;97841.27;;;5.69;67.73
50302;BME280;36550;50.472;19.744;2023-04-29T02:22:33;97839.95;;;5.71;67.72
50302;BME280;36550;50.472;19.744;2023-04-29T02:25:17;97841.41;;;5.72;67.67
50302;BME280;36550;50.472;19.744;2023-04-29T02:28:01;97838.84;;;5.75;67.99
50302;BME280;36550;50.472;19.744;2023-04-29T02:30:45;97838.55;;;5.78;67.98
50302;BME280;36550;50.472;19.744;2023-04-29T02:33:30;97836.40;;;5.81;68.06
50302;BME280;36550;50.472;19.744;2023-04-29T02:36:14;97835.94;;;5.87;68.39
50302;BME280;36550;50.472;19.744;2023-04-29T02:38:58;97839.95;;;5.93;68.50
50302;BME280;36550;50.472;19.744;2023-04-29T02:41:43;97838.83;;;5.99;68.54
50302;BME280;36550;50.472;19.744;2023-04-29T02:44:27;97837.61;;;6.03;68.53
50302;BME280;36550;50.472;19.744;2023-04-29T02:47:11;97835.19;;;6.07;68.60
50302;BME280;36550;50.472;19.744;2023-04-29T02:49:55;97836.84;;;6.10;68.63
50302;BME280;36550;50.472;19.744;2023-04-29T02:52:39;97839.07;;;6.14;68.67
50302;BME280;36550;50.472;19.744;2023-04-29T02:55:25;97836.03;;;6.19;68.68
50302;BME280;36550;50.472;19.744;2023-04-29T02:58:09;97832.63;;;6.23;68.67
50302;BME280;36550;50.472;19.744;2023-04-29T03:00:53;97829.02;;;6.30;68.50
50302;BME280;36550;50.472;19.744;2023-04-29T03:03:37;97828.00;;;6.38;68.60
50302;BME280;36550;50.472;19.744;2023-04-29T03:06:21;97826.60;;;6.44;68.59
50302;BME280;36550;50.472;19.744;2023-04-29T03:09:05;97822.51;;;6.50;68.75
50302;BME280;36550;50.472;19.744;2023-04-29T03:11:49;97820.79;;;6.54;68.87
50302;BME280;36550;50.472;19.744;2023-04-29T03:14:33;97818.73;;;6.56;68.87
50302;BME280;36550;50.472;19.744;2023-04-29T03:17:17;97816.96;;;6.56;68.84
50302;BME280;36550;50.472;19.744;2023-04-29T03:20:01;97811.84;;;6.55;68.78
50302;BME280;36550;50.472;19.744;2023-04-29T03:22:45;97812.48;;;6.55;68.74
50302;BME280;36550;50.472;19.744;2023-04-29T03:25:29;97810.73;;;6.54;68.88
50302;BME280;36550;50.472;19.744;2023-04-29T03:28:14;97816.55;;;6.54;68.90
50302;BME280;36550;50.472;19.744;2023-04-29T03:30:58;97820.44;;;6.53;68.93
50302;BME280;36550;50.472;19.744;2023-04-29T03:33:42;97822.52;;;6.50;68.78
50302;BME280;36550;50.472;19.744;2023-04-29T03:36:26;97825.66;;;6.51;68.84
50302;BME280;36550;50.472;19.744;2023-04-29T03:39:10;97827.48;;;6.55;68.80
50302;BME280;36550;50.472;19.744;2023-04-29T03:41:58;97827.95;;;6.62;69.06
50302;BME280;36550;50.472;19.744;2023-04-29T03:44:42;97829.98;;;6.68;69.01
50302;BME280;36550;50.472;19.744;2023-04-29T03:47:26;97830.52;;;6.71;69.11
50302;BME280;36550;50.472;19.744;2023-04-29T03:50:10;97826.60;;;6.74;69.04
50302;BME280;36550;50.472;19.744;2023-04-29T03:52:54;97830.53;;;6.79;69.11
50302;BME280;36550;50.472;19.744;2023-04-29T03:55:38;97830.30;;;6.83;69.12
50302;BME280;36550;50.472;19.744;2023-04-29T03:58:23;97828.09;;;6.88;69.16
50302;BME280;36550;50.472;19.744;2023-04-29T04:01:07;97828.33;;;6.92;69.22
50302;BME280;36550;50.472;19.744;2023-04-29T04:03:51;97832.98;;;6.96;69.19
50302;BME280;36550;50.472;19.744;2023-04-29T04:06:35;97840.12;;;6.99;69.03
50302;BME280;36550;50.472;19.744;2023-04-29T04:09:19;97832.81;;;6.98;69.15
50302;BME280;36550;50.472;19.744;2023-04-29T04:12:03;97826.13;;;7.00;69.19
50302;BME280;36550;50.472;19.744;2023-04-29T04:14:47;97825.09;;;7.09;69.33
50302;BME280;36550;50.472;19.744;2023-04-29T04:17:31;97823.37;;;7.17;69.38
50302;BME280;36550;50.472;19.744;2023-04-29T04:20:15;97825.21;;;7.24;69.47
50302;BME280;36550;50.472;19.744;2023-04-29T04:23:00;97825.85;;;7.32;69.45
50302;BME280;36550;50.472;19.744;2023-04-29T04:25:45;97824.30;;;7.38;69.35
50302;BME280;36550;50.472;19.744;2023-04-29T04:28:29;97823.90;;;7.45;69.38
50302;BME280;36550;50.472;19.744;2023-04-29T04:31:13;97826.55;;;7.52;69.28
50302;BME280;36550;50.472;19.744;2023-04-29T04:33:57;97829.42;;;7.57;69.17
50302;BME280;36550;50.472;19.744;2023-04-29T04:36:42;97826.50;;;7.63;69.19
50302;BME280;36550;50.472;19.744;2023-04-29T04:39:26;97816.63;;;7.69;69.16
50302;BME280;36550;50.472;19.744;2023-04-29T04:42:10;97817.81;;;7.80;69.17
50302;BME280;36550;50.472;19.744;2023-04-29T04:44:54;97817.23;;;7.91;69.18
50302;BME280;36550;50.472;19.744;2023-04-29T04:47:39;97820.20;;;8.00;69.26
50302;BME280;36550;50.472;19.744;2023-04-29T04:50:23;97819.11;;;8.10;69.29
50302;BME280;36550;50.472;19.744;2023-04-29T04:53:07;97819.17;;;8.21;69.40
50302;BME280;36550;50.472;19.744;2023-04-29T04:55:51;97815.39;;;8.27;69.30
50302;BME280;36550;50.472;19.744;2023-04-29T04:58:35;97811.52;;;8.31;69.17
50302;BME280;36550;50.472;19.744;2023-04-29T05:01:19;97810.37;;;8.35;69.17
50302;BME280;36550;50.472;19.744;2023-04-29T05:04:03;97810.05;;;8.45;69.18
50302;BME280;36550;50.472;19.744;2023-04-29T05:06:47;97806.98;;;8.59;69.28
50302;BME280;36550;50.472;19.744;2023-04-29T05:09:31;97807.78;;;8.76;69.45
50302;BME280;36550;50.472;19.744;2023-04-29T05:12:15;97807.90;;;8.90;69.26
50302;BME280;36550;50.472;19.744;2023-04-29T05:15:00;97806.52;;;9.04;69.34
50302;BME280;36550;50.472;19.744;2023-04-29T05:17:43;97805.60;;;9.20;69.30
50302;BME280;36550;50.472;19.744;2023-04-29T05:20:27;97801.25;;;9.35;69.22
50302;BME280;36550;50.472;19.744;2023-04-29T05:23:11;97800.46;;;9.50;69.29
50302;BME280;36550;50.472;19.744;2023-04-29T05:25:55;97800.73;;;9.65;69.06
50302;BME280;36550;50.472;19.744;2023-04-29T05:28:39;97803.96;;;9.80;68.98
50302;BME280;36550;50.472;19.744;2023-04-29T05:31:23;97808.05;;;9.95;68.89
50302;BME280;36550;50.472;19.744;2023-04-29T05:34:07;97804.33;;;10.10;68.84
50302;BME280;36550;50.472;19.744;2023-04-29T05:36:51;97807.45;;;10.24;68.77
50302;BME280;36550;50.472;19.744;2023-04-29T05:39:35;97807.48;;;10.34;68.61
50302;BME280;36550;50.472;19.744;2023-04-29T05:42:18;97805.00;;;10.40;68.54
50302;BME280;36550;50.472;19.744;2023-04-29T05:45:03;97807.95;;;10.49;68.54
50302;BME280;36550;50.472;19.744;2023-04-29T05:47:46;97812.76;;;10.59;68.42
50302;BME280;36550;50.472;19.744;2023-04-29T05:50:30;97808.34;;;10.69;68.50
50302;BME280;36550;50.472;19.744;2023-04-29T05:53:14;97812.41;;;10.82;68.44
50302;BME280;36550;50.472;19.744;2023-04-29T05:55:58;97814.59;;;10.94;68.08
50302;BME280;36550;50.472;19.744;2023-04-29T05:58:42;97815.59;;;11.06;67.67
50302;BME280;36550;50.472;19.744;2023-04-29T06:01:26;97816.20;;;11.21;67.25
50302;BME280;36550;50.472;19.744;2023-04-29T06:04:10;97817.87;;;11.31;66.85
50302;BME280;36550;50.472;19.744;2023-04-29T06:06:55;97811.01;;;11.46;66.72
50302;BME280;36550;50.472;19.744;2023-04-29T06:09:40;97812.31;;;11.64;66.66
50302;BME280;36550;50.472;19.744;2023-04-29T06:12:25;97815.77;;;11.86;66.45
50302;BME280;36550;50.472;19.744;2023-04-29T06:15:09;97808.46;;;12.06;66.26
50302;BME280;36550;50.472;19.744;2023-04-29T06:17:53;97808.50;;;12.25;65.94
50302;BME280;36550;50.472;19.744;2023-04-29T06:20:37;97810.54;;;12.43;65.82
50302;BME280;36550;50.472;19.744;2023-04-29T06:23:21;97810.28;;;12.60;65.47
50302;BME280;36550;50.472;19.744;2023-04-29T06:26:05;97813.88;;;12.72;65.31
50302;BME280;36550;50.472;19.744;2023-04-29T06:28:50;97809.23;;;12.79;64.98
50302;BME280;36550;50.472;19.744;2023-04-29T06:31:34;97809.10;;;12.86;64.71
50302;BME280;36550;50.472;19.744;2023-04-29T06:34:18;97808.80;;;12.88;64.17
50302;BME280;36550;50.472;19.744;2023-04-29T06:37:02;97807.41;;;12.92;64.09
50302;BME280;36550;50.472;19.744;2023-04-29T06:39:47;97804.27;;;12.96;63.79
50302;BME280;36550;50.472;19.744;2023-04-29T06:42:30;97803.77;;;13.01;63.91
50302;BME280;36550;50.472;19.744;2023-04-29T06:45:15;97804.34;;;13.09;64.05
50302;BME280;36550;50.472;19.744;2023-04-29T06:47:58;97799.83;;;13.21;63.80
50302;BME280;36550;50.472;19.744;2023-04-29T06:50:56;97801.70;;;13.35;64.00
50302;BME280;36550;50.472;19.744;2023-04-29T06:53:41;97800.08;;;13.50;63.41
50302;BME280;36550;50.472;19.744;2023-04-29T06:56:25;97801.27;;;13.60;63.32
50302;BME280;36550;50.472;19.744;2023-04-29T06:59:09;97800.73;;;13.73;63.01
50302;BME280;36550;50.472;19.744;2023-04-29T07:01:55;97798.09;;;13.69;62.48
50302;BME280;36550;50.472;19.744;2023-04-29T07:04:39;97796.03;;;13.67;62.25
50302;BME280;36550;50.472;19.744;2023-04-29T07:07:24;97798.25;;;13.70;62.47
50302;BME280;36550;50.472;19.744;2023-04-29T07:10:08;97794.97;;;13.87;62.75
50302;BME280;36550;50.472;19.744;2023-04-29T07:12:52;97791.95;;;14.06;62.62
50302;BME280;36550;50.472;19.744;2023-04-29T07:15:36;97794.02;;;14.26;62.32
50302;BME280;36550;50.472;19.744;2023-04-29T07:18:21;97794.94;;;14.51;62.06
50302;BME280;36550;50.472;19.744;2023-04-29T07:21:06;97792.23;;;14.76;61.54
50302;BME280;36550;50.472;19.744;2023-04-29T07:23:51;97788.80;;;14.97;61.25
50302;BME280;36550;50.472;19.744;2023-04-29T07:26:35;97786.96;;;15.17;60.72
50302;BME280;36550;50.472;19.744;2023-04-29T07:29:19;97790.77;;;15.34;60.57
50302;BME280;36550;50.472;19.744;2023-04-29T07:32:03;97793.88;;;15.47;60.30
50302;BME280;36550;50.472;19.744;2023-04-29T07:34:47;97792.96;;;15.52;59.98
50302;BME280;36550;50.472;19.744;2023-04-29T07:37:31;97794.71;;;15.53;59.44
50302;BME280;36550;50.472;19.744;2023-04-29T07:40:15;97797.99;;;15.52;59.18
50302;BME280;36550;50.472;19.744;2023-04-29T07:42:59;97795.53;;;15.60;59.03
50302;BME280;36550;50.472;19.744;2023-04-29T07:45:47;97794.00;;;15.69;58.72
50302;BME280;36550;50.472;19.744;2023-04-29T07:48:36;97791.16;;;15.79;58.66
50302;BME280;36550;50.472;19.744;2023-04-29T07:51:21;97789.41;;;15.91;58.22
50302;BME280;36550;50.472;19.744;2023-04-29T07:54:04;97793.10;;;16.00;57.93
50302;BME280;36550;50.472;19.744;2023-04-29T07:56:48;97791.17;;;16.11;57.65
50302;BME280;36550;50.472;19.744;2023-04-29T07:59:32;97789.71;;;16.24;57.56
50302;BME280;36550;50.472;19.744;2023-04-29T08:02:16;97786.86;;;16.29;57.07
50302;BME280;36550;50.472;19.744;2023-04-29T08:05:00;97790.41;;;16.36;56.02
50302;BME280;36550;50.472;19.744;2023-04-29T08:07:45;97792.23;;;16.41;55.62
50302;BME280;36550;50.472;19.744;2023-04-29T08:10:29;97793.91;;;16.55;55.26
50302;BME280;36550;50.472;19.744;2023-04-29T08:13:12;97796.64;;;16.77;55.42
50302;BME280;36550;50.472;19.744;2023-04-29T08:15:56;97796.83;;;17.08;55.76
50302;BME280;36550;50.472;19.744;2023-04-29T08:18:40;97795.98;;;17.40;55.19
50302;BME280;36550;50.472;19.744;2023-04-29T08:21:25;97798.55;;;17.65;54.73
50302;BME280;36550;50.472;19.744;2023-04-29T08:24:10;97798.17;;;17.86;54.05
50302;BME280;36550;50.472;19.744;2023-04-29T08:26:54;97794.84;;;18.02;53.19
50302;BME280;36550;50.472;19.744;2023-04-29T08:29:38;97792.79;;;18.08;52.40
50302;BME280;36550;50.472;19.744;2023-04-29T08:32:22;97798.34;;;18.13;52.10
50302;BME280;36550;50.472;19.744;2023-04-29T08:35:06;97795.86;;;18.19;51.91
50302;BME280;36550;50.472;19.744;2023-04-29T08:37:52;97793.88;;;18.20;51.25
50302;BME280;36550;50.472;19.744;2023-04-29T08:40:41;97795.29;;;18.09;50.90
50302;BME280;36550;50.472;19.744;2023-04-29T08:43:26;97794.45;;;17.99;51.40
50302;BME280;36550;50.472;19.744;2023-04-29T08:46:11;97796.50;;;18.01;51.26
50302;BME280;36550;50.472;19.744;2023-04-29T08:48:55;97796.23;;;17.93;50.88
50302;BME280;36550;50.472;19.744;2023-04-29T08:51:40;97797.23;;;17.85;51.11
50302;BME280;36550;50.472;19.744;2023-04-29T08:54:24;97795.39;;;17.80;51.14
50302;BME280;36550;50.472;19.744;2023-04-29T08:57:10;97797.41;;;17.75;51.04
50302;BME280;36550;50.472;19.744;2023-04-29T08:59:55;97801.73;;;17.69;50.97
50302;BME280;36550;50.472;19.744;2023-04-29T09:02:52;97800.39;;;17.66;51.07
50302;BME280;36550;50.472;19.744;2023-04-29T09:05:40;97801.77;;;17.62;50.91
50302;BME280;36550;50.472;19.744;2023-04-29T09:08:26;97801.20;;;17.53;50.21
50302;BME280;36550;50.472;19.744;2023-04-29T09:11:10;97806.61;;;17.44;49.84
50302;BME280;36550;50.472;19.744;2023-04-29T09:13:58;97803.48;;;17.30;49.65
50302;BME280;36550;50.472;19.744;2023-04-29T09:16:46;97802.02;;;17.19;49.96
50302;BME280;36550;50.472;19.744;2023-04-29T09:19:32;97802.16;;;17.05;49.99
50302;BME280;36550;50.472;19.744;2023-04-29T09:22:16;97806.63;;;16.88;50.45
50302;BME280;36550;50.472;19.744;2023-04-29T09:25:26;97810.60;;;16.73;50.65
50302;BME280;36550;50.472;19.744;2023-04-29T09:28:14;97808.73;;;16.63;51.16
50302;BME280;36550;50.472;19.744;2023-04-29T09:31:01;97806.63;;;16.57;51.46
50302;BME280;36550;50.472;19.744;2023-04-29T09:36:47;97808.55;;;16.41;51.20
50302;BME280;36550;50.472;19.744;2023-04-29T09:39:38;97809.64;;;16.28;51.47
50302;BME280;36550;50.472;19.744;2023-04-29T09:42:22;97811.50;;;16.20;51.71
50302;BME280;36550;50.472;19.744;2023-04-29T09:45:07;97813.20;;;16.15;51.87
50302;BME280;36550;50.472;19.744;2023-04-29T09:48:00;97811.14;;;16.10;51.81
50302;BME280;36550;50.472;19.744;2023-04-29T09:50:58;97809.45;;;16.11;52.29
50302;BME280;36550;50.472;19.744;2023-04-29T09:53:44;97809.81;;;16.20;52.45
50302;BME280;36550;50.472;19.744;2023-04-29T09:56:43;97808.98;;;16.25;52.57
50302;BME280;36550;50.472;19.744;2023-04-29T09:59:32;97801.39;;;16.28;52.76
50302;BME280;36550;50.472;19.744;2023-04-29T10:02:20;97805.36;;;16.43;52.91
50302;BME280;36550;50.472;19.744;2023-04-29T10:05:06;97804.02;;;16.58;53.18
50302;BME280;36550;50.472;19.744;2023-04-29T10:07:53;97802.55;;;16.79;53.26
50302;BME280;36550;50.472;19.744;2023-04-29T10:10:37;97800.02;;;16.91;52.85
50302;BME280;36550;50.472;19.744;2023-04-29T10:13:25;97797.21;;;16.90;52.58
50302;BME280;36550;50.472;19.744;2023-04-29T10:16:27;97793.20;;;16.89;52.81
50302;BME280;36550;50.472;19.744;2023-04-29T10:19:21;97795.23;;;16.81;52.82
50302;BME280;36550;50.472;19.744;2023-04-29T10:22:11;97796.66;;;16.63;53.03
50302;BME280;36550;50.472;19.744;2023-04-29T10:24:56;97791.94;;;16.45;53.14
50302;BME280;36550;50.472;19.744;2023-04-29T10:27:42;97791.54;;;16.34;53.53
50302;BME280;36550;50.472;19.744;2023-04-29T10:30:27;97792.39;;;16.27;53.70
50302;BME280;36550;50.472;19.744;2023-04-29T10:33:15;97793.91;;;16.21;54.00
50302;BME280;36550;50.472;19.744;2023-04-29T10:36:00;97799.61;;;16.10;54.21
50302;BME280;36550;50.472;19.744;2023-04-29T10:38:47;97801.39;;;15.95;54.41
50302;BME280;36550;50.472;19.744;2023-04-29T10:41:44;97798.14;;;15.82;54.50
50302;BME280;36550;50.472;19.744;2023-04-29T10:44:29;97797.94;;;15.78;54.77
50302;BME280;36550;50.472;19.744;2023-04-29T10:47:19;97797.47;;;15.79;55.01
50302;BME280;36550;50.472;19.744;2023-04-29T10:50:04;97792.97;;;15.80;55.17
50302;BME280;36550;50.472;19.744;2023-04-29T10:52:50;97788.63;;;15.88;55.39
50302;BME280;36550;50.472;19.744;2023-04-29T10:55:35;97783.73;;;16.00;55.29
50302;BME280;36550;50.472;19.744;2023-04-29T10:58:43;97786.89;;;16.03;55.54
50302;BME280;36550;50.472;19.744;2023-04-29T11:01:39;97789.13;;;16.08;55.69
50302;BME280;36550;50.472;19.744;2023-04-29T11:04:23;97790.73;;;16.08;55.51
50302;BME280;36550;50.472;19.744;2023-04-29T11:07:07;97782.77;;;16.10;55.52
50302;BME280;36550;50.472;19.744;2023-04-29T11:09:51;97775.64;;;16.14;55.72
50302;BME280;36550;50.472;19.744;2023-04-29T11:12:34;97770.70;;;16.23;55.56
50302;BME280;36550;50.472;19.744;2023-04-29T11:15:19;97771.11;;;16.47;55.69
50302;BME280;36550;50.472;19.744;2023-04-29T11:18:03;97768.88;;;16.82;55.68
50302;BME280;36550;50.472;19.744;2023-04-29T11:23:50;97767.86;;;17.74;54.71
50302;BME280;36550;50.472;19.744;2023-04-29T11:26:35;97769.85;;;18.18;54.15
50302;BME280;36550;50.472;19.744;2023-04-29T11:29:19;97768.77;;;18.36;53.43
50302;BME280;36550;50.472;19.744;2023-04-29T11:32:06;97769.21;;;18.51;52.49
50302;BME280;36550;50.472;19.744;2023-04-29T11:34:51;97769.73;;;18.66;51.71
50302;BME280;36550;50.472;19.744;2023-04-29T11:37:36;97767.73;;;18.74;51.10
50302;BME280;36550;50.472;19.744;2023-04-29T11:40:20;97766.58;;;18.80;50.53
50302;BME280;36550;50.472;19.744;2023-04-29T11:43:04;97764.59;;;18.75;50.30
50302;BME280;36550;50.472;19.744;2023-04-29T11:45:49;97761.77;;;18.66;50.69
50302;BME280;36550;50.472;19.744;2023-04-29T11:48:34;97761.33;;;18.58;50.96
50302;BME280;36550;50.472;19.744;2023-04-29T11:51:18;97761.45;;;18.45;50.61
50302;BME280;36550;50.472;19.744;2023-04-29T11:54:02;97759.67;;;18.19;50.60
50302;BME280;36550;50.472;19.744;2023-04-29T11:56:46;97758.04;;;17.86;50.79
50302;BME280;36550;50.472;19.744;2023-04-29T11:59:30;97759.77;;;17.52;51.28
50302;BME280;36550;50.472;19.744;2023-04-29T12:02:21;97760.45;;;17.26;51.67
50302;BME280;36550;50.472;19.744;2023-04-29T12:05:06;97758.93;;;17.07;52.14
50302;BME280;36550;50.472;19.744;2023-04-29T12:07:51;97758.60;;;16.93;52.62
50302;BME280;36550;50.472;19.744;2023-04-29T12:10:35;97754.87;;;16.95;52.99
50302;BME280;36550;50.472;19.744;2023-04-29T12:13:19;97756.28;;;17.01;53.06
50302;BME280;36550;50.472;19.744;2023-04-29T12:16:05;97757.89;;;17.09;53.43
50302;BME280;36550;50.472;19.744;2023-04-29T12:18:51;97756.94;;;17.27;53.63
50302;BME280;36550;50.472;19.744;2023-04-29T12:21:35;97752.29;;;17.53;53.59
50302;BME280;36550;50.472;19.744;2023-04-29T12:24:20;97756.81;;;17.78;53.22
50302;BME280;36550;50.472;19.744;2023-04-29T12:27:08;97754.95;;;17.95;52.96
50302;BME280;36550;50.472;19.744;2023-04-29T12:29:52;97756.00;;;17.99;52.67
50302;BME280;36550;50.472;19.744;2023-04-29T12:32:36;97756.83;;;17.99;52.51
50302;BME280;36550;50.472;19.744;2023-04-29T12:35:21;97754.35;;;18.03;52.47
50302;BME280;36550;50.472;19.744;2023-04-29T12:38:06;97748.54;;;18.04;51.97
50302;BME280;36550;50.472;19.744;2023-04-29T12:40:51;97748.64;;;18.02;52.32
50302;BME280;36550;50.472;19.744;2023-04-29T12:43:36;97750.90;;;17.99;52.29
50302;BME280;36550;50.472;19.744;2023-04-29T12:46:20;97746.27;;;17.85;51.96
50302;BME280;36550;50.472;19.744;2023-04-29T12:49:05;97741.48;;;17.70;52.06
50302;BME280;36550;50.472;19.744;2023-04-29T12:51:50;97739.85;;;17.58;52.39
50302;BME280;36550;50.472;19.744;2023-04-29T12:54:35;97739.64;;;17.45;52.67
50302;BME280;36550;50.472;19.744;2023-04-29T12:57:19;97741.38;;;17.34;52.92
50302;BME280;36550;50.472;19.744;2023-04-29T13:00:04;97744.85;;;17.18;52.89
50302;BME280;36550;50.472;19.744;2023-04-29T13:02:50;97740.35;;;17.04;53.08
50302;BME280;36550;50.472;19.744;2023-04-29T13:05:34;97738.86;;;16.90;53.30
50302;BME280;36550;50.472;19.744;2023-04-29T13:08:18;97738.89;;;16.80;53.62
50302;BME280;36550;50.472;19.744;2023-04-29T13:11:02;97741.06;;;16.69;53.81
50302;BME280;36550;50.472;19.744;2023-04-29T13:13:46;97741.74;;;16.53;54.11
50302;BME280;36550;50.472;19.744;2023-04-29T13:16:31;97740.47;;;16.41;54.48
50302;BME280;36550;50.472;19.744;2023-04-29T13:19:16;97739.80;;;16.27;54.73
50302;BME280;36550;50.472;19.744;2023-04-29T13:22:00;97738.80;;;16.14;55.15
50302;BME280;36550;50.472;19.744;2023-04-29T13:24:44;97739.45;;;16.05;55.72
50302;BME280;36550;50.472;19.744;2023-04-29T13:27:29;97739.88;;;15.95;56.06
50302;BME280;36550;50.472;19.744;2023-04-29T13:30:13;97736.54;;;15.89;56.35
50302;BME280;36550;50.472;19.744;2023-04-29T13:32:57;97736.65;;;15.89;56.54
50302;BME280;36550;50.472;19.744;2023-04-29T13:35:41;97737.90;;;15.92;57.08
50302;BME280;36550;50.472;19.744;2023-04-29T13:38:25;97735.61;;;15.93;57.36
50302;BME280;36550;50.472;19.744;2023-04-29T13:41:09;97739.52;;;15.94;57.51
50302;BME280;36550;50.472;19.744;2023-04-29T13:43:53;97737.23;;;15.96;57.63
50302;BME280;36550;50.472;19.744;2023-04-29T13:46:37;97734.38;;;16.04;57.77
50302;BME280;36550;50.472;19.744;2023-04-29T13:49:21;97733.56;;;16.20;57.85
50302;BME280;36550;50.472;19.744;2023-04-29T13:52:09;97736.80;;;16.38;57.86
50302;BME280;36550;50.472;19.744;2023-04-29T13:54:53;97738.12;;;16.50;58.01
50302;BME280;36550;50.472;19.744;2023-04-29T13:57:37;97741.22;;;16.59;58.13
50302;BME280;36550;50.472;19.744;2023-04-29T14:00:20;97740.50;;;16.62;57.89
50302;BME280;36550;50.472;19.744;2023-04-29T14:03:04;97738.56;;;16.59;58.03
50302;BME280;36550;50.472;19.744;2023-04-29T14:05:50;97740.36;;;16.58;58.28
50302;BME280;36550;50.472;19.744;2023-04-29T14:08:34;97740.79;;;16.65;58.50
50302;BME280;36550;50.472;19.744;2023-04-29T14:11:18;97734.65;;;16.74;58.29
50302;BME280;36550;50.472;19.744;2023-04-29T14:14:02;97733.84;;;16.84;57.87
50302;BME280;36550;50.472;19.744;2023-04-29T14:16:46;97735.73;;;16.95;57.72
50302;BME280;36550;50.472;19.744;2023-04-29T14:19:30;97735.81;;;17.07;57.65
50302;BME280;36550;50.472;19.744;2023-04-29T14:22:14;97731.42;;;17.13;57.49
50302;BME280;36550;50.472;19.744;2023-04-29T14:24:57;97730.70;;;17.17;57.49
50302;BME280;36550;50.472;19.744;2023-04-29T14:27:41;97732.42;;;17.19;57.39
50302;BME280;36550;50.472;19.744;2023-04-29T14:30:26;97732.02;;;17.23;57.20
50302;BME280;36550;50.472;19.744;2023-04-29T14:33:11;97733.71;;;17.23;57.03
50302;BME280;36550;50.472;19.744;2023-04-29T14:35:55;97730.95;;;17.18;56.96
50302;BME280;36550;50.472;19.744;2023-04-29T14:38:39;97730.46;;;17.11;56.83
50302;BME280;36550;50.472;19.744;2023-04-29T14:41:23;97728.61;;;17.02;56.99